sensor_id;sensor_type;location;lat;lon;timestamp;pressure;altitude;pressure_sealevel;temperature;humidity
35489;BME280;21602;55.670;37.578;2023-06-22T00:02:17;99429.72;;;17.18;49.08
35489;BME280;21602;55.670;37.578;2023-06-22T00:04:43;99430.31;;;17.15;49.26
35489;BME280;21602;55.670;37.578;2023-06-22T00:07:08;99432.19;;;17.14;49.26
35489;BME280;21602;55.670;37.578;2023-06-22T00:09:34;99438.09;;;17.17;48.86
35489;BME280;21602;55.670;37.578;2023-06-22T00:12:00;99431.38;;;17.19;48.92
35489;BME280;21602;55.670;37.578;2023-06-22T00:14:25;99430.28;;;17.20;49.04
35489;BME280;21602;55.670;37.578;2023-06-22T00:16:51;99429.47;;;17.20;48.72
35489;BME280;21602;55.670;37.578;2023-06-22T00:19:21;99426.78;;;17.20;47.91
35489;BME280;21602;55.670;37.578;2023-06-22T00:21:47;99432.72;;;17.17;48.38
35489;BME280;21602;55.670;37.578;2023-06-22T00:24:13;99435.94;;;17.13;48.42
35489;BME280;21602;55.670;37.578;2023-06-22T00:26:40;99438.94;;;17.12;48.49
35489;BME280;21602;55.670;37.578;2023-06-22T00:29:08;99431.66;;;17.07;48.68
35489;BME280;21602;55.670;37.578;2023-06-22T00:31:34;99439.47;;;17.04;48.36
35489;BME280;21602;55.670;37.578;2023-06-22T00:33:59;99441.66;;;17.02;48.36
35489;BME280;21602;55.670;37.578;2023-06-22T00:36:25;99431.41;;;16.99;48.81
35489;BME280;21602;55.670;37.578;2023-06-22T00:38:51;99439.78;;;16.97;48.80
35489;BME280;21602;55.670;37.578;2023-06-22T00:41:17;99435.19;;;16.98;49.17
35489;BME280;21602;55.670;37.578;2023-06-22T00:43:42;99436.00;;;16.98;48.69
35489;BME280;21602;55.670;37.578;2023-06-22T00:46:08;99437.34;;;17.01;48.38
35489;BME280;21602;55.670;37.578;2023-06-22T00:48:35;99431.97;;;17.01;48.83
35489;BME280;21602;55.670;37.578;2023-06-22T00:51:02;99437.34;;;17.01;48.79
35489;BME280;21602;55.670;37.578;2023-06-22T00:53:28;99438.44;;;17.00;48.54
35489;BME280;21602;55.670;37.578;2023-06-22T00:55:54;99431.41;;;16.99;49.03
35489;BME280;21602;55.670;37.578;2023-06-22T00:58:19;99431.16;;;16.95;49.14
35489;BME280;21602;55.670;37.578;2023-06-22T01:00:51;99432.22;;;16.94;48.96
35489;BME280;21602;55.670;37.578;2023-06-22T01:03:16;99426.59;;;16.91;48.29
35489;BME280;21602;55.670;37.578;2023-06-22T01:05:42;99438.44;;;16.89;49.09
35489;BME280;21602;55.670;37.578;2023-06-22T01:13:13;99439.53;;;16.83;49.13
35489;BME280;21602;55.670;37.578;2023-06-22T01:15:44;99437.13;;;16.82;48.95
35489;BME280;21602;55.670;37.578;2023-06-22T01:18:11;99434.13;;;16.83;49.47
35489;BME280;21602;55.670;37.578;2023-06-22T01:20:38;99431.44;;;16.83;48.98
35489;BME280;21602;55.670;37.578;2023-06-22T01:23:07;99444.13;;;16.83;48.48
35489;BME280;21602;55.670;37.578;2023-06-22T01:25:45;99439.53;;;16.83;49.01
35489;BME280;21602;55.670;37.578;2023-06-22T01:28:32;99441.69;;;16.86;49.17
35489;BME280;21602;55.670;37.578;2023-06-22T01:31:00;99440.88;;;16.91;49.03
35489;BME280;21602;55.670;37.578;2023-06-22T01:33:35;99442.50;;;16.92;49.34
35489;BME280;21602;55.670;37.578;2023-06-22T01:36:02;99439.25;;;16.95;48.65
35489;BME280;21602;55.670;37.578;2023-06-22T01:38:29;99437.88;;;16.98;49.10
35489;BME280;21602;55.670;37.578;2023-06-22T01:40:55;99442.19;;;16.99;49.12
35489;BME280;21602;55.670;37.578;2023-06-22T01:43:22;99438.44;;;17.00;49.36
35489;BME280;21602;55.670;37.578;2023-06-22T01:45:49;99446.25;;;17.01;49.81
35489;BME280;21602;55.670;37.578;2023-06-22T01:48:18;99442.19;;;17.04;49.85
35489;BME280;21602;55.670;37.578;2023-06-22T01:50:44;99435.19;;;17.03;49.70
35489;BME280;21602;55.670;37.578;2023-06-22T01:53:10;99435.47;;;17.01;50.40
35489;BME280;21602;55.670;37.578;2023-06-22T01:55:36;99437.34;;;17.01;50.39
35489;BME280;21602;55.670;37.578;2023-06-22T01:58:01;99435.97;;;17.03;49.96
35489;BME280;21602;55.670;37.578;2023-06-22T02:00:28;99436.53;;;17.05;50.66
35489;BME280;21602;55.670;37.578;2023-06-22T02:02:59;99435.16;;;17.08;50.48
35489;BME280;21602;55.670;37.578;2023-06-22T02:05:35;99443.53;;;17.11;50.58
35489;BME280;21602;55.670;37.578;2023-06-22T02:08:04;99447.28;;;17.15;49.42
35489;BME280;21602;55.670;37.578;2023-06-22T02:10:32;99442.16;;;17.19;49.84
35489;BME280;21602;55.670;37.578;2023-06-22T02:12:59;99445.91;;;17.23;49.02
35489;BME280;21602;55.670;37.578;2023-06-22T02:15:25;99438.88;;;17.27;49.03
35489;BME280;21602;55.670;37.578;2023-06-22T02:17:53;99434.56;;;17.31;49.01
35489;BME280;21602;55.670;37.578;2023-06-22T02:20:41;99441.53;;;17.37;49.57
35489;BME280;21602;55.670;37.578;2023-06-22T02:23:06;99431.28;;;17.39;49.53
35489;BME280;21602;55.670;37.578;2023-06-22T02:25:34;99432.63;;;17.42;49.67
35489;BME280;21602;55.670;37.578;2023-06-22T02:28:00;99428.81;;;17.48;49.47
35489;BME280;21602;55.670;37.578;2023-06-22T02:30:26;99426.34;;;17.52;49.87
35489;BME280;21602;55.670;37.578;2023-06-22T02:32:52;99420.72;;;17.53;49.16
35489;BME280;21602;55.670;37.578;2023-06-22T02:35:29;99414.50;;;17.53;49.45
35489;BME280;21602;55.670;37.578;2023-06-22T02:37:57;99413.97;;;17.51;49.54
35489;BME280;21602;55.670;37.578;2023-06-22T02:40:24;99413.16;;;17.50;49.51
35489;BME280;21602;55.670;37.578;2023-06-22T02:42:50;99411.56;;;17.44;49.08
35489;BME280;21602;55.670;37.578;2023-06-22T02:45:16;99412.09;;;17.46;49.73
35489;BME280;21602;55.670;37.578;2023-06-22T02:47:42;99415.84;;;17.50;49.00
35489;BME280;21602;55.670;37.578;2023-06-22T02:50:08;99415.03;;;17.55;48.59
35489;BME280;21602;55.670;37.578;2023-06-22T02:52:35;99416.59;;;17.61;48.23
35489;BME280;21602;55.670;37.578;2023-06-22T02:55:01;99410.63;;;17.69;47.79
35489;BME280;21602;55.670;37.578;2023-06-22T02:57:29;99400.09;;;17.78;47.63
35489;BME280;21602;55.670;37.578;2023-06-22T02:59:55;99406.81;;;17.85;47.48
35489;BME280;21602;55.670;37.578;2023-06-22T03:02:21;99402.97;;;17.91;47.06
35489;BME280;21602;55.670;37.578;2023-06-22T03:04:47;99396.97;;;18.00;47.00
35489;BME280;21602;55.670;37.578;2023-06-22T03:07:20;99406.34;;;18.07;46.93
35489;BME280;21602;55.670;37.578;2023-06-22T03:09:49;99396.88;;;18.15;46.98
35489;BME280;21602;55.670;37.578;2023-06-22T03:12:15;99395.44;;;18.23;46.92
35489;BME280;21602;55.670;37.578;2023-06-22T03:14:51;99399.94;;;18.32;46.58
35489;BME280;21602;55.670;37.578;2023-06-22T03:17:17;99391.25;;;18.40;46.18
35489;BME280;21602;55.670;37.578;2023-06-22T03:19:43;99393.38;;;18.43;46.03
35489;BME280;21602;55.670;37.578;2023-06-22T03:22:09;99393.69;;;18.42;45.56
35489;BME280;21602;55.670;37.578;2023-06-22T03:24:35;99387.22;;;18.38;45.50
35489;BME280;21602;55.670;37.578;2023-06-22T03:27:02;99385.59;;;18.37;45.25
35489;BME280;21602;55.670;37.578;2023-06-22T03:29:30;99380.44;;;18.40;45.30
35489;BME280;21602;55.670;37.578;2023-06-22T03:31:56;99381.72;;;18.48;45.28
35489;BME280;21602;55.670;37.578;2023-06-22T03:34:22;99381.97;;;18.52;45.09
35489;BME280;21602;55.670;37.578;2023-06-22T03:36:51;99374.81;;;18.61;44.82
35489;BME280;21602;55.670;37.578;2023-06-22T03:39:18;99379.09;;;18.67;45.09
35489;BME280;21602;55.670;37.578;2023-06-22T03:41:44;99374.47;;;18.73;44.82
35489;BME280;21602;55.670;37.578;2023-06-22T03:44:10;99377.38;;;18.81;44.81
35489;BME280;21602;55.670;37.578;2023-06-22T03:46:37;99371.91;;;18.86;44.65
35489;BME280;21602;55.670;37.578;2023-06-22T03:49:03;99358.06;;;18.88;44.56
35489;BME280;21602;55.670;37.578;2023-06-22T03:51:30;99368.03;;;18.92;44.17
35489;BME280;21602;55.670;37.578;2023-06-22T03:53:56;99372.94;;;18.90;43.97
35489;BME280;21602;55.670;37.578;2023-06-22T03:56:21;99367.22;;;18.92;43.93
35489;BME280;21602;55.670;37.578;2023-06-22T03:58:47;99359.84;;;18.98;43.80
35489;BME280;21602;55.670;37.578;2023-06-22T04:01:12;99361.19;;;19.00;43.58
35489;BME280;21602;55.670;37.578;2023-06-22T04:03:38;99372.69;;;19.11;43.62
35489;BME280;21602;55.670;37.578;2023-06-22T04:06:04;99362.91;;;19.15;43.33
35489;BME280;21602;55.670;37.578;2023-06-22T04:08:30;99364.38;;;19.26;43.29
35489;BME280;21602;55.670;37.578;2023-06-22T04:10:55;99360.47;;;19.37;43.32
35489;BME280;21602;55.670;37.578;2023-06-22T04:13:21;99363.53;;;19.50;42.92
35489;BME280;21602;55.670;37.578;2023-06-22T04:15:47;99359.38;;;19.57;42.61
35489;BME280;21602;55.670;37.578;2023-06-22T04:18:13;99351.13;;;19.67;42.70
35489;BME280;21602;55.670;37.578;2023-06-22T04:20:38;99352.44;;;19.70;43.29
35489;BME280;21602;55.670;37.578;2023-06-22T04:23:04;99343.72;;;19.73;42.65
35489;BME280;21602;55.670;37.578;2023-06-22T04:25:30;99347.53;;;19.72;42.65
35489;BME280;21602;55.670;37.578;2023-06-22T04:27:55;99346.13;;;19.75;42.33
35489;BME280;21602;55.670;37.578;2023-06-22T04:30:21;99341.38;;;19.85;42.67
35489;BME280;21602;55.670;37.578;2023-06-22T04:32:48;99343.13;;;19.95;42.71
35489;BME280;21602;55.670;37.578;2023-06-22T04:35:23;99343.31;;;19.99;42.44
35489;BME280;21602;55.670;37.578;2023-06-22T04:37:49;99343.75;;;20.06;42.53
35489;BME280;21602;55.670;37.578;2023-06-22T04:40:16;99343.59;;;20.16;42.43
35489;BME280;21602;55.670;37.578;2023-06-22T04:42:41;99341.22;;;20.28;42.21
35489;BME280;21602;55.670;37.578;2023-06-22T04:45:17;99340.38;;;20.46;42.10
35489;BME280;21602;55.670;37.578;2023-06-22T04:47:42;99344.09;;;20.51;42.10
35489;BME280;21602;55.670;37.578;2023-06-22T04:50:13;99344.09;;;20.51;42.01
35489;BME280;21602;55.670;37.578;2023-06-22T04:52:39;99337.50;;;20.57;41.92
35489;BME280;21602;55.670;37.578;2023-06-22T04:55:05;99337.28;;;20.53;42.29
35489;BME280;21602;55.670;37.578;2023-06-22T04:57:30;99328.84;;;20.55;42.25
35489;BME280;21602;55.670;37.578;2023-06-22T04:59:58;99325.94;;;20.51;42.63
35489;BME280;21602;55.670;37.578;2023-06-22T05:02:36;99332.22;;;20.46;42.64
35489;BME280;21602;55.670;37.578;2023-06-22T05:05:02;99339.03;;;20.44;42.87
35489;BME280;21602;55.670;37.578;2023-06-22T05:07:35;99338.84;;;20.40;42.80
35489;BME280;21602;55.670;37.578;2023-06-22T05:10:01;99345.88;;;20.41;43.04
35489;BME280;21602;55.670;37.578;2023-06-22T05:12:30;99345.06;;;20.41;42.80
35489;BME280;21602;55.670;37.578;2023-06-22T05:14:56;99343.75;;;20.38;43.92
35489;BME280;21602;55.670;37.578;2023-06-22T05:17:21;99347.97;;;20.44;42.85
35489;BME280;21602;55.670;37.578;2023-06-22T05:19:47;99346.31;;;20.49;43.21
35489;BME280;21602;55.670;37.578;2023-06-22T05:22:15;99351.53;;;20.59;43.08
35489;BME280;21602;55.670;37.578;2023-06-22T05:24:41;99352.25;;;20.64;42.87
35489;BME280;21602;55.670;37.578;2023-06-22T05:27:09;99333.09;;;20.61;42.93
35489;BME280;21602;55.670;37.578;2023-06-22T05:29:36;99342.50;;;20.63;42.84
35489;BME280;21602;55.670;37.578;2023-06-22T05:32:01;99338.50;;;20.61;42.90
35489;BME280;21602;55.670;37.578;2023-06-22T05:34:32;99339.50;;;20.65;42.55
35489;BME280;21602;55.670;37.578;2023-06-22T05:36:58;99345.75;;;20.65;42.76
35489;BME280;21602;55.670;37.578;2023-06-22T05:39:26;99339.13;;;20.71;43.01
35489;BME280;21602;55.670;37.578;2023-06-22T05:41:52;99346.34;;;20.76;43.02
35489;BME280;21602;55.670;37.578;2023-06-22T05:44:18;99347.94;;;20.77;42.39
35489;BME280;21602;55.670;37.578;2023-06-22T05:46:44;99345.25;;;20.77;42.87
35489;BME280;21602;55.670;37.578;2023-06-22T05:49:10;99336.91;;;20.87;43.01
35489;BME280;21602;55.670;37.578;2023-06-22T05:51:36;99331.47;;;21.01;42.87
35489;BME280;21602;55.670;37.578;2023-06-22T05:54:02;99345.34;;;21.13;43.08
35489;BME280;21602;55.670;37.578;2023-06-22T05:56:28;99335.97;;;21.19;42.91
35489;BME280;21602;55.670;37.578;2023-06-22T05:58:53;99341.63;;;21.23;42.76
35489;BME280;21602;55.670;37.578;2023-06-22T06:01:19;99339.03;;;21.32;42.77
35489;BME280;21602;55.670;37.578;2023-06-22T06:03:45;99343.09;;;21.43;42.25
35489;BME280;21602;55.670;37.578;2023-06-22T06:06:11;99339.47;;;21.47;42.50
35489;BME280;21602;55.670;37.578;2023-06-22T06:08:37;99344.00;;;21.52;42.31
35489;BME280;21602;55.670;37.578;2023-06-22T06:11:03;99333.75;;;21.35;42.59
35489;BME280;21602;55.670;37.578;2023-06-22T06:13:29;99331.25;;;21.25;42.76
35489;BME280;21602;55.670;37.578;2023-06-22T06:15:54;99330.75;;;21.23;42.62
35489;BME280;21602;55.670;37.578;2023-06-22T06:18:24;99322.41;;;21.33;42.74
35489;BME280;21602;55.670;37.578;2023-06-22T06:20:49;99336.97;;;21.51;42.96
35489;BME280;21602;55.670;37.578;2023-06-22T06:23:15;99326.66;;;21.62;42.49
35489;BME280;21602;55.670;37.578;2023-06-22T06:25:41;99330.84;;;21.68;42.45
35489;BME280;21602;55.670;37.578;2023-06-22T06:28:06;99334.97;;;21.79;42.44
35489;BME280;21602;55.670;37.578;2023-06-22T06:30:32;99333.84;;;21.80;42.39
35489;BME280;21602;55.670;37.578;2023-06-22T06:32:58;99339.69;;;21.73;41.95
35489;BME280;21602;55.670;37.578;2023-06-22T06:35:23;99333.44;;;21.73;41.97
35489;BME280;21602;55.670;37.578;2023-06-22T06:37:50;99337.69;;;21.79;41.93
35489;BME280;21602;55.670;37.578;2023-06-22T06:40:16;99330.63;;;21.78;41.71
35489;BME280;21602;55.670;37.578;2023-06-22T06:42:44;99335.31;;;21.86;42.12
35489;BME280;21602;55.670;37.578;2023-06-22T06:45:16;99333.22;;;22.06;42.13
35489;BME280;21602;55.670;37.578;2023-06-22T06:47:41;99335.31;;;22.31;41.63
35489;BME280;21602;55.670;37.578;2023-06-22T06:50:07;99334.16;;;22.55;40.93
35489;BME280;21602;55.670;37.578;2023-06-22T06:52:33;99327.72;;;22.82;40.23
35489;BME280;21602;55.670;37.578;2023-06-22T06:54:59;99336.28;;;22.97;39.64
35489;BME280;21602;55.670;37.578;2023-06-22T06:57:29;99330.69;;;23.11;38.74
35489;BME280;21602;55.670;37.578;2023-06-22T06:59:55;99332.59;;;22.93;38.51
35489;BME280;21602;55.670;37.578;2023-06-22T07:02:24;99323.56;;;22.84;38.76
35489;BME280;21602;55.670;37.578;2023-06-22T07:04:51;99325.72;;;22.96;38.85
35489;BME280;21602;55.670;37.578;2023-06-22T07:07:16;99322.06;;;23.09;38.35
35489;BME280;21602;55.670;37.578;2023-06-22T07:09:45;99332.66;;;23.19;38.12
35489;BME280;21602;55.670;37.578;2023-06-22T07:12:11;99331.66;;;23.07;38.44
35489;BME280;21602;55.670;37.578;2023-06-22T07:14:36;99330.28;;;22.87;38.72
35489;BME280;21602;55.670;37.578;2023-06-22T07:17:02;99335.72;;;22.87;38.99
35489;BME280;21602;55.670;37.578;2023-06-22T07:19:28;99329.50;;;22.86;39.15
35489;BME280;21602;55.670;37.578;2023-06-22T07:21:54;99330.09;;;22.74;39.38
35489;BME280;21602;55.670;37.578;2023-06-22T07:24:21;99334.44;;;22.75;39.70
35489;BME280;21602;55.670;37.578;2023-06-22T07:26:47;99328.69;;;22.86;39.99
35489;BME280;21602;55.670;37.578;2023-06-22T07:29:13;99318.19;;;23.02;39.93
35489;BME280;21602;55.670;37.578;2023-06-22T07:31:39;99322.69;;;23.06;40.07
35489;BME280;21602;55.670;37.578;2023-06-22T07:34:06;99317.53;;;22.96;39.98
35489;BME280;21602;55.670;37.578;2023-06-22T07:36:32;99319.47;;;22.95;39.72
35489;BME280;21602;55.670;37.578;2023-06-22T07:38:57;99312.28;;;22.99;40.04
35489;BME280;21602;55.670;37.578;2023-06-22T07:41:23;99317.91;;;23.03;39.95
35489;BME280;21602;55.670;37.578;2023-06-22T07:43:49;99317.75;;;23.25;39.96
35489;BME280;21602;55.670;37.578;2023-06-22T07:46:15;99313.94;;;23.44;39.53
35489;BME280;21602;55.670;37.578;2023-06-22T07:48:41;99313.63;;;23.63;39.11
35489;BME280;21602;55.670;37.578;2023-06-22T07:51:08;99322.31;;;23.65;39.15
35489;BME280;21602;55.670;37.578;2023-06-22T07:53:34;99317.69;;;23.65;38.98
35489;BME280;21602;55.670;37.578;2023-06-22T07:55:59;99321.31;;;23.61;39.09
35489;BME280;21602;55.670;37.578;2023-06-22T07:58:25;99316.69;;;23.61;38.87
35489;BME280;21602;55.670;37.578;2023-06-22T08:00:50;99311.22;;;23.61;39.00
35489;BME280;21602;55.670;37.578;2023-06-22T08:03:16;99305.16;;;23.73;39.08
35489;BME280;21602;55.670;37.578;2023-06-22T08:05:41;99303.38;;;23.94;38.91
35489;BME280;21602;55.670;37.578;2023-06-22T08:08:07;99305.25;;;24.11;38.77
35489;BME280;21602;55.670;37.578;2023-06-22T08:10:32;99298.81;;;24.16;38.11
35489;BME280;21602;55.670;37.578;2023-06-22T08:12:58;99297.38;;;24.27;38.50
35489;BME280;21602;55.670;37.578;2023-06-22T08:15:25;99301.06;;;24.31;38.40
35489;BME280;21602;55.670;37.578;2023-06-22T08:17:52;99296.06;;;24.42;38.34
35489;BME280;21602;55.670;37.578;2023-06-22T08:20:17;99301.00;;;24.48;38.01
35489;BME280;21602;55.670;37.578;2023-06-22T08:22:44;99295.56;;;24.48;37.64
35489;BME280;21602;55.670;37.578;2023-06-22T08:25:11;99293.97;;;24.47;38.25
35489;BME280;21602;55.670;37.578;2023-06-22T08:27:36;99295.84;;;24.56;38.34
35489;BME280;21602;55.670;37.578;2023-06-22T08:30:02;99290.19;;;24.69;37.75
35489;BME280;21602;55.670;37.578;2023-06-22T08:32:28;99284.91;;;24.64;37.69
35489;BME280;21602;55.670;37.578;2023-06-22T08:34:54;99285.81;;;24.68;37.83
35489;BME280;21602;55.670;37.578;2023-06-22T08:37:20;99285.31;;;24.75;38.23
35489;BME280;21602;55.670;37.578;2023-06-22T08:39:58;99287.06;;;24.80;38.01
35489;BME280;21602;55.670;37.578;2023-06-22T08:42:23;99276.66;;;24.73;38.04
35489;BME280;21602;55.670;37.578;2023-06-22T08:44:51;99276.47;;;24.78;38.25
35489;BME280;21602;55.670;37.578;2023-06-22T08:47:16;99285.28;;;24.84;38.01
35489;BME280;21602;55.670;37.578;2023-06-22T08:49:42;99284.84;;;24.73;38.03
35489;BME280;21602;55.670;37.578;2023-06-22T08:52:08;99281.81;;;24.36;37.76
35489;BME280;21602;55.670;37.578;2023-06-22T08:54:33;99278.03;;;24.02;38.37
35489;BME280;21602;55.670;37.578;2023-06-22T08:57:00;99271.13;;;23.96;38.66
35489;BME280;21602;55.670;37.578;2023-06-22T08:59:26;99257.97;;;23.98;38.20
35489;BME280;21602;55.670;37.578;2023-06-22T09:01:51;99267.31;;;23.89;38.79
35489;BME280;21602;55.670;37.578;2023-06-22T09:04:17;99274.03;;;23.91;38.69
35489;BME280;21602;55.670;37.578;2023-06-22T09:06:43;99275.16;;;23.90;37.79
35489;BME280;21602;55.670;37.578;2023-06-22T09:09:11;99272.59;;;23.85;37.41
35489;BME280;21602;55.670;37.578;2023-06-22T09:11:37;99263.13;;;23.83;40.17
35489;BME280;21602;55.670;37.578;2023-06-22T09:14:08;99255.63;;;23.80;41.12
35489;BME280;21602;55.670;37.578;2023-06-22T09:16:37;99250.28;;;23.83;38.66
35489;BME280;21602;55.670;37.578;2023-06-22T09:19:03;99257.66;;;23.91;38.06
35489;BME280;21602;55.670;37.578;2023-06-22T09:21:29;99248.69;;;23.99;38.33
35489;BME280;21602;55.670;37.578;2023-06-22T09:23:54;99247.84;;;24.08;38.51
35489;BME280;21602;55.670;37.578;2023-06-22T09:26:20;99252.66;;;24.11;38.09
35489;BME280;21602;55.670;37.578;2023-06-22T09:28:46;99243.31;;;24.20;38.29
35489;BME280;21602;55.670;37.578;2023-06-22T09:31:12;99252.75;;;24.32;38.19
35489;BME280;21602;55.670;37.578;2023-06-22T09:33:39;99246.16;;;24.33;37.91
35489;BME280;21602;55.670;37.578;2023-06-22T09:36:05;99244.56;;;24.32;38.67
35489;BME280;21602;55.670;37.578;2023-06-22T09:38:38;99244.06;;;24.38;38.30
35489;BME280;21602;55.670;37.578;2023-06-22T09:41:04;99251.09;;;24.48;38.30
35489;BME280;21602;55.670;37.578;2023-06-22T09:43:31;99242.88;;;24.57;38.26
35489;BME280;21602;55.670;37.578;2023-06-22T09:45:56;99250.59;;;24.55;37.95
35489;BME280;21602;55.670;37.578;2023-06-22T09:48:22;99246.81;;;24.38;37.96
35489;BME280;21602;55.670;37.578;2023-06-22T09:50:48;99239.00;;;24.11;38.39
35489;BME280;21602;55.670;37.578;2023-06-22T09:53:14;99243.56;;;23.98;38.48
35489;BME280;21602;55.670;37.578;2023-06-22T09:55:40;99225.56;;;23.97;38.93
35489;BME280;21602;55.670;37.578;2023-06-22T09:58:05;99228.63;;;24.04;38.67
35489;BME280;21602;55.670;37.578;2023-06-22T10:00:31;99232.78;;;24.01;38.02
35489;BME280;21602;55.670;37.578;2023-06-22T10:02:57;99221.88;;;24.01;38.96
35489;BME280;21602;55.670;37.578;2023-06-22T10:05:22;99230.19;;;24.14;38.48
35489;BME280;21602;55.670;37.578;2023-06-22T10:07:48;99243.03;;;24.05;38.25
35489;BME280;21602;55.670;37.578;2023-06-22T10:10:13;99231.69;;;23.94;38.51
35489;BME280;21602;55.670;37.578;2023-06-22T10:12:41;99224.50;;;23.89;38.57
35489;BME280;21602;55.670;37.578;2023-06-22T10:15:08;99221.59;;;23.94;38.95
35489;BME280;21602;55.670;37.578;2023-06-22T10:17:43;99226.03;;;24.08;38.50
35489;BME280;21602;55.670;37.578;2023-06-22T10:20:09;99213.81;;;24.14;38.60
35489;BME280;21602;55.670;37.578;2023-06-22T10:22:38;99218.56;;;24.25;38.33
35489;BME280;21602;55.670;37.578;2023-06-22T10:25:04;99206.38;;;24.40;38.31
35489;BME280;21602;55.670;37.578;2023-06-22T10:27:30;99197.56;;;24.64;38.15
35489;BME280;21602;55.670;37.578;2023-06-22T10:29:56;99200.75;;;24.87;38.21
35489;BME280;21602;55.670;37.578;2023-06-22T10:32:22;99194.06;;;25.06;38.08
35489;BME280;21602;55.670;37.578;2023-06-22T10:34:47;99183.81;;;25.23;38.04
35489;BME280;21602;55.670;37.578;2023-06-22T10:37:13;99181.53;;;25.46;37.74
35489;BME280;21602;55.670;37.578;2023-06-22T10:39:42;99184.63;;;25.57;37.52
35489;BME280;21602;55.670;37.578;2023-06-22T10:42:07;99185.41;;;25.45;37.01
35489;BME280;21602;55.670;37.578;2023-06-22T10:44:33;99169.66;;;25.42;36.97
35489;BME280;21602;55.670;37.578;2023-06-22T10:46:58;99174.25;;;25.50;36.74
35489;BME280;21602;55.670;37.578;2023-06-22T10:49:24;99174.69;;;25.52;36.40
35489;BME280;21602;55.670;37.578;2023-06-22T10:51:49;99171.19;;;25.52;36.74
35489;BME280;21602;55.670;37.578;2023-06-22T10:54:15;99167.59;;;25.39;36.88
35489;BME280;21602;55.670;37.578;2023-06-22T10:56:43;99168.28;;;25.36;36.89
35489;BME280;21602;55.670;37.578;2023-06-22T10:59:09;99166.34;;;25.37;36.79
35489;BME280;21602;55.670;37.578;2023-06-22T11:01:34;99166.47;;;25.40;37.03
35489;BME280;21602;55.670;37.578;2023-06-22T11:04:00;99163.78;;;25.52;36.85
35489;BME280;21602;55.670;37.578;2023-06-22T11:06:26;99154.91;;;25.68;36.44
35489;BME280;21602;55.670;37.578;2023-06-22T11:08:51;99151.34;;;25.88;37.13
35489;BME280;21602;55.670;37.578;2023-06-22T11:11:17;99144.63;;;26.10;36.11
35489;BME280;21602;55.670;37.578;2023-06-22T11:13:43;99143.16;;;26.13;37.08
35489;BME280;21602;55.670;37.578;2023-06-22T11:16:09;99149.66;;;26.20;36.00
35489;BME280;21602;55.670;37.578;2023-06-22T11:18:38;99160.16;;;26.18;35.34
35489;BME280;21602;55.670;37.578;2023-06-22T11:21:03;99141.13;;;26.22;35.34
35489;BME280;21602;55.670;37.578;2023-06-22T11:23:29;99145.66;;;26.30;35.37
35489;BME280;21602;55.670;37.578;2023-06-22T11:25:55;99146.00;;;26.53;34.91
35489;BME280;21602;55.670;37.578;2023-06-22T11:28:20;99135.81;;;27.18;34.32
35489;BME280;21602;55.670;37.578;2023-06-22T11:30:46;99139.56;;;27.86;33.61
35489;BME280;21602;55.670;37.578;2023-06-22T11:33:11;99148.78;;;28.41;33.08
35489;BME280;21602;55.670;37.578;2023-06-22T11:35:37;99126.72;;;28.05;33.20
35489;BME280;21602;55.670;37.578;2023-06-22T11:38:03;99135.84;;;28.25;32.89
35489;BME280;21602;55.670;37.578;2023-06-22T11:40:30;99128.69;;;28.05;32.97
35489;BME280;21602;55.670;37.578;2023-06-22T11:42:55;99124.78;;;28.73;32.50
35489;BME280;21602;55.670;37.578;2023-06-22T11:45:21;99124.38;;;29.52;32.09
35489;BME280;21602;55.670;37.578;2023-06-22T11:47:47;99117.53;;;30.34;31.15
35489;BME280;21602;55.670;37.578;2023-06-22T11:50:12;99119.28;;;30.76;30.26
35489;BME280;21602;55.670;37.578;2023-06-22T11:52:38;99119.72;;;31.11;30.33
35489;BME280;21602;55.670;37.578;2023-06-22T11:55:04;99104.97;;;31.68;29.12
35489;BME280;21602;55.670;37.578;2023-06-22T11:57:32;99104.38;;;32.44;28.35
35489;BME280;21602;55.670;37.578;2023-06-22T12:00:03;99105.03;;;32.92;27.90
35489;BME280;21602;55.670;37.578;2023-06-22T12:02:32;99096.78;;;33.13;27.79
35489;BME280;21602;55.670;37.578;2023-06-22T12:04:57;99092.91;;;33.36;27.45
35489;BME280;21602;55.670;37.578;2023-06-22T12:07:23;99087.44;;;33.57;27.35
35489;BME280;21602;55.670;37.578;2023-06-22T12:09:49;99086.22;;;33.80;27.30
35489;BME280;21602;55.670;37.578;2023-06-22T12:12:15;99085.06;;;33.77;27.12
35489;BME280;21602;55.670;37.578;2023-06-22T12:14:40;99076.72;;;33.70;26.71
35489;BME280;21602;55.670;37.578;2023-06-22T12:17:06;99085.44;;;34.11;26.28
35489;BME280;21602;55.670;37.578;2023-06-22T12:19:32;99079.44;;;34.52;25.94
35489;BME280;21602;55.670;37.578;2023-06-22T12:22:00;99071.88;;;34.63;25.66
35489;BME280;21602;55.670;37.578;2023-06-22T12:24:27;99068.19;;;34.84;25.79
35489;BME280;21602;55.670;37.578;2023-06-22T12:26:53;99071.44;;;34.69;25.87
35489;BME280;21602;55.670;37.578;2023-06-22T12:29:18;99064.88;;;33.55;26.76
35489;BME280;21602;55.670;37.578;2023-06-22T12:31:44;99065.03;;;32.68;27.45
35489;BME280;21602;55.670;37.578;2023-06-22T12:34:10;99069.63;;;32.43;27.17
35489;BME280;21602;55.670;37.578;2023-06-22T12:36:36;99073.13;;;31.81;27.77
35489;BME280;21602;55.670;37.578;2023-06-22T12:39:01;99063.41;;;31.13;28.61
35489;BME280;21602;55.670;37.578;2023-06-22T12:41:27;99055.19;;;30.52;29.36
35489;BME280;21602;55.670;37.578;2023-06-22T12:43:53;99063.59;;;31.27;28.35
35489;BME280;21602;55.670;37.578;2023-06-22T12:46:18;99055.69;;;32.21;28.10
35489;BME280;21602;55.670;37.578;2023-06-22T12:48:44;99050.94;;;33.09;27.14
35489;BME280;21602;55.670;37.578;2023-06-22T12:51:09;99053.81;;;33.70;26.47
35489;BME280;21602;55.670;37.578;2023-06-22T12:53:35;99043.91;;;34.15;25.56